sensor_id;sensor_type;location;lat;lon;timestamp;temperature;humidity
77523;SHT31;66637;-29.628;-49.938;2023-05-07T00:00:11;22.74;83.23
77523;SHT31;66637;-29.628;-49.938;2023-05-07T00:02:46;22.77;83.16
77523;SHT31;66637;-29.628;-49.938;2023-05-07T00:05:17;22.77;83.16
77523;SHT31;66637;-29.628;-49.938;2023-05-07T00:07:48;22.77;83.12
77523;SHT31;66637;-29.628;-49.938;2023-05-07T00:10:20;22.80;83.05
77523;SHT31;66637;-29.628;-49.938;2023-05-07T00:12:53;22.76;83.01
77523;SHT31;66637;-29.628;-49.938;2023-05-07T00:15:25;22.79;82.99
77523;SHT31;66637;-29.628;-49.938;2023-05-07T00:17:57;22.76;82.91
77523;SHT31;66637;-29.628;-49.938;2023-05-07T00:20:30;22.72;82.97
77523;SHT31;66637;-29.628;-49.938;2023-05-07T00:23:03;22.66;83.19
77523;SHT31;66637;-29.628;-49.938;2023-05-07T00:25:35;22.64;83.19
77523;SHT31;66637;-29.628;-49.938;2023-05-07T00:28:05;22.62;83.27
77523;SHT31;66637;-29.628;-49.938;2023-05-07T00:30:37;22.57;83.56
77523;SHT31;66637;-29.628;-49.938;2023-05-07T00:33:07;22.59;83.69
77523;SHT31;66637;-29.628;-49.938;2023-05-07T00:35:39;22.57;83.69
77523;SHT31;66637;-29.628;-49.938;2023-05-07T00:38:10;22.62;83.64
77523;SHT31;66637;-29.628;-49.938;2023-05-07T00:40:41;22.63;83.46
77523;SHT31;66637;-29.628;-49.938;2023-05-07T00:43:14;22.67;83.37
77523;SHT31;66637;-29.628;-49.938;2023-05-07T00:45:47;22.76;83.29
77523;SHT31;66637;-29.628;-49.938;2023-05-07T00:48:23;22.77;83.15
77523;SHT31;66637;-29.628;-49.938;2023-05-07T00:50:58;22.79;83.15
77523;SHT31;66637;-29.628;-49.938;2023-05-07T00:53:30;22.82;83.07
77523;SHT31;66637;-29.628;-49.938;2023-05-07T00:56:04;22.80;83.18
77523;SHT31;66637;-29.628;-49.938;2023-05-07T00:58:36;22.79;83.11
77523;SHT31;66637;-29.628;-49.938;2023-05-07T01:01:08;22.82;83.04
77523;SHT31;66637;-29.628;-49.938;2023-05-07T01:03:38;22.83;83.27
77523;SHT31;66637;-29.628;-49.938;2023-05-07T01:06:11;22.79;83.32
77523;SHT31;66637;-29.628;-49.938;2023-05-07T01:08:44;22.79;83.38
77523;SHT31;66637;-29.628;-49.938;2023-05-07T01:11:15;22.73;83.42
77523;SHT31;66637;-29.628;-49.938;2023-05-07T01:13:47;22.79;83.54
77523;SHT31;66637;-29.628;-49.938;2023-05-07T01:16:21;22.79;83.62
77523;SHT31;66637;-29.628;-49.938;2023-05-07T01:18:53;22.77;83.58
77523;SHT31;66637;-29.628;-49.938;2023-05-07T01:21:26;22.77;83.63
77523;SHT31;66637;-29.628;-49.938;2023-05-07T01:23:59;22.76;83.61
77523;SHT31;66637;-29.628;-49.938;2023-05-07T01:26:35;22.74;83.68
77523;SHT31;66637;-29.628;-49.938;2023-05-07T01:29:06;22.79;83.68
77523;SHT31;66637;-29.628;-49.938;2023-05-07T01:31:37;22.77;83.70
77523;SHT31;66637;-29.628;-49.938;2023-05-07T01:34:11;22.76;83.74
77523;SHT31;66637;-29.628;-49.938;2023-05-07T01:36:44;22.74;83.85
77523;SHT31;66637;-29.628;-49.938;2023-05-07T01:39:16;22.67;84.12
77523;SHT31;66637;-29.628;-49.938;2023-05-07T01:41:49;22.62;84.73
77523;SHT31;66637;-29.628;-49.938;2023-05-07T01:44:23;22.63;84.51
77523;SHT31;66637;-29.628;-49.938;2023-05-07T01:46:56;22.59;84.51
77523;SHT31;66637;-29.628;-49.938;2023-05-07T01:49:28;22.57;84.65
77523;SHT31;66637;-29.628;-49.938;2023-05-07T01:52:00;22.57;84.69
77523;SHT31;66637;-29.628;-49.938;2023-05-07T01:54:31;22.59;84.82
77523;SHT31;66637;-29.628;-49.938;2023-05-07T01:57:03;22.62;84.95
77523;SHT31;66637;-29.628;-49.938;2023-05-07T01:59:35;22.57;84.72
77523;SHT31;66637;-29.628;-49.938;2023-05-07T02:02:05;22.64;84.82
77523;SHT31;66637;-29.628;-49.938;2023-05-07T02:04:40;22.77;84.48
77523;SHT31;66637;-29.628;-49.938;2023-05-07T02:07:16;22.67;84.57
77523;SHT31;66637;-29.628;-49.938;2023-05-07T02:09:48;22.64;84.58
77523;SHT31;66637;-29.628;-49.938;2023-05-07T02:12:19;22.63;84.59
77523;SHT31;66637;-29.628;-49.938;2023-05-07T02:14:51;22.63;84.86
77523;SHT31;66637;-29.628;-49.938;2023-05-07T02:17:22;22.63;84.70
77523;SHT31;66637;-29.628;-49.938;2023-05-07T02:19:53;22.67;85.29
77523;SHT31;66637;-29.628;-49.938;2023-05-07T02:22:24;22.72;85.31
77523;SHT31;66637;-29.628;-49.938;2023-05-07T02:24:55;22.70;85.16
77523;SHT31;66637;-29.628;-49.938;2023-05-07T02:27:27;22.76;85.22
77523;SHT31;66637;-29.628;-49.938;2023-05-07T02:29:59;22.72;85.20
77523;SHT31;66637;-29.628;-49.938;2023-05-07T02:32:59;22.72;85.29
77523;SHT31;66637;-29.628;-49.938;2023-05-07T02:35:30;22.69;85.16
77523;SHT31;66637;-29.628;-49.938;2023-05-07T02:38:07;22.67;85.24
77523;SHT31;66637;-29.628;-49.938;2023-05-07T02:40:48;22.64;85.18
77523;SHT31;66637;-29.628;-49.938;2023-05-07T02:43:19;22.62;85.20
77523;SHT31;66637;-29.628;-49.938;2023-05-07T02:46:07;22.64;85.45
77523;SHT31;66637;-29.628;-49.938;2023-05-07T02:48:42;22.56;85.09
77523;SHT31;66637;-29.628;-49.938;2023-05-07T02:51:14;22.57;85.46
77523;SHT31;66637;-29.628;-49.938;2023-05-07T02:53:46;22.55;85.28
77523;SHT31;66637;-29.628;-49.938;2023-05-07T02:56:18;22.53;85.52
77523;SHT31;66637;-29.628;-49.938;2023-05-07T02:58:51;22.56;85.67
77523;SHT31;66637;-29.628;-49.938;2023-05-07T03:01:26;22.52;85.45
77523;SHT31;66637;-29.628;-49.938;2023-05-07T03:04:06;22.56;85.48
77523;SHT31;66637;-29.628;-49.938;2023-05-07T03:06:37;22.60;85.59
77523;SHT31;66637;-29.628;-49.938;2023-05-07T03:09:07;22.66;85.84
77523;SHT31;66637;-29.628;-49.938;2023-05-07T03:11:41;22.66;85.89
77523;SHT31;66637;-29.628;-49.938;2023-05-07T03:14:14;22.66;85.95
77523;SHT31;66637;-29.628;-49.938;2023-05-07T03:16:45;22.66;85.94
77523;SHT31;66637;-29.628;-49.938;2023-05-07T03:19:16;22.67;85.84
77523;SHT31;66637;-29.628;-49.938;2023-05-07T03:21:48;22.70;85.98
77523;SHT31;66637;-29.628;-49.938;2023-05-07T03:24:27;22.70;85.95
77523;SHT31;66637;-29.628;-49.938;2023-05-07T03:26:59;22.69;85.84
77523;SHT31;66637;-29.628;-49.938;2023-05-07T03:29:32;22.74;85.87
77523;SHT31;66637;-29.628;-49.938;2023-05-07T03:32:03;22.72;86.24
77523;SHT31;66637;-29.628;-49.938;2023-05-07T03:34:35;22.73;86.27
77523;SHT31;66637;-29.628;-49.938;2023-05-07T03:37:07;22.70;86.31
77523;SHT31;66637;-29.628;-49.938;2023-05-07T03:39:41;22.66;86.23
77523;SHT31;66637;-29.628;-49.938;2023-05-07T03:42:13;22.66;86.37
77523;SHT31;66637;-29.628;-49.938;2023-05-07T03:44:45;22.66;86.57
77523;SHT31;66637;-29.628;-49.938;2023-05-07T03:47:18;22.69;86.70
77523;SHT31;66637;-29.628;-49.938;2023-05-07T03:49:50;22.69;86.68
77523;SHT31;66637;-29.628;-49.938;2023-05-07T03:52:24;22.69;86.65
77523;SHT31;66637;-29.628;-49.938;2023-05-07T03:54:58;22.67;86.80
77523;SHT31;66637;-29.628;-49.938;2023-05-07T03:57:29;22.66;86.85
77523;SHT31;66637;-29.628;-49.938;2023-05-07T04:00:02;22.63;86.78
77523;SHT31;66637;-29.628;-49.938;2023-05-07T04:02:47;22.62;86.82
77523;SHT31;66637;-29.628;-49.938;2023-05-07T04:05:26;22.59;86.90
77523;SHT31;66637;-29.628;-49.938;2023-05-07T04:08:01;22.59;86.86
77523;SHT31;66637;-29.628;-49.938;2023-05-07T04:10:38;22.60;86.98
77523;SHT31;66637;-29.628;-49.938;2023-05-07T04:13:11;22.62;86.93
77523;SHT31;66637;-29.628;-49.938;2023-05-07T04:15:44;22.63;86.92
77523;SHT31;66637;-29.628;-49.938;2023-05-07T04:18:19;22.69;86.78
77523;SHT31;66637;-29.628;-49.938;2023-05-07T04:20:52;22.67;86.69
77523;SHT31;66637;-29.628;-49.938;2023-05-07T04:23:24;22.64;86.61
77523;SHT31;66637;-29.628;-49.938;2023-05-07T04:25:57;22.66;86.54
77523;SHT31;66637;-29.628;-49.938;2023-05-07T04:28:36;22.70;86.36
77523;SHT31;66637;-29.628;-49.938;2023-05-07T04:31:08;22.64;86.34
77523;SHT31;66637;-29.628;-49.938;2023-05-07T04:33:40;22.70;86.18
77523;SHT31;66637;-29.628;-49.938;2023-05-07T04:36:14;22.66;86.13
77523;SHT31;66637;-29.628;-49.938;2023-05-07T04:38:57;22.67;86.21
77523;SHT31;66637;-29.628;-49.938;2023-05-07T04:41:29;22.66;86.28
77523;SHT31;66637;-29.628;-49.938;2023-05-07T04:44:01;22.64;86.54
77523;SHT31;66637;-29.628;-49.938;2023-05-07T04:46:35;22.63;86.43
77523;SHT31;66637;-29.628;-49.938;2023-05-07T04:49:06;22.66;86.48
77523;SHT31;66637;-29.628;-49.938;2023-05-07T04:51:37;22.77;86.60
77523;SHT31;66637;-29.628;-49.938;2023-05-07T04:54:09;22.82;86.49
77523;SHT31;66637;-29.628;-49.938;2023-05-07T04:56:41;22.80;86.46
77523;SHT31;66637;-29.628;-49.938;2023-05-07T04:59:12;22.80;86.34
77523;SHT31;66637;-29.628;-49.938;2023-05-07T05:01:45;22.89;86.34
77523;SHT31;66637;-29.628;-49.938;2023-05-07T05:04:17;22.92;86.24
77523;SHT31;66637;-29.628;-49.938;2023-05-07T05:06:48;22.93;86.12
77523;SHT31;66637;-29.628;-49.938;2023-05-07T05:09:20;22.94;86.10
77523;SHT31;66637;-29.628;-49.938;2023-05-07T05:11:51;22.99;85.93
77523;SHT31;66637;-29.628;-49.938;2023-05-07T05:14:27;22.92;85.77
77523;SHT31;66637;-29.628;-49.938;2023-05-07T05:16:59;22.90;85.67
77523;SHT31;66637;-29.628;-49.938;2023-05-07T05:19:29;22.84;85.69
77523;SHT31;66637;-29.628;-49.938;2023-05-07T05:22:05;22.74;85.72
77523;SHT31;66637;-29.628;-49.938;2023-05-07T05:24:37;22.76;85.76
77523;SHT31;66637;-29.628;-49.938;2023-05-07T05:27:10;22.82;85.68
77523;SHT31;66637;-29.628;-49.938;2023-05-07T05:29:40;22.84;85.61
77523;SHT31;66637;-29.628;-49.938;2023-05-07T05:32:11;22.80;85.66
77523;SHT31;66637;-29.628;-49.938;2023-05-07T05:34:45;22.84;85.69
77523;SHT31;66637;-29.628;-49.938;2023-05-07T05:37:19;22.82;85.87
77523;SHT31;66637;-29.628;-49.938;2023-05-07T05:39:51;22.83;85.98
77523;SHT31;66637;-29.628;-49.938;2023-05-07T05:42:23;22.86;85.91
77523;SHT31;66637;-29.628;-49.938;2023-05-07T05:44:55;22.82;85.92
77523;SHT31;66637;-29.628;-49.938;2023-05-07T05:47:27;22.84;85.94
77523;SHT31;66637;-29.628;-49.938;2023-05-07T05:49:59;22.80;85.82
77523;SHT31;66637;-29.628;-49.938;2023-05-07T05:52:30;22.79;86.22
77523;SHT31;66637;-29.628;-49.938;2023-05-07T05:55:02;22.79;86.28
77523;SHT31;66637;-29.628;-49.938;2023-05-07T05:57:34;22.77;86.37
77523;SHT31;66637;-29.628;-49.938;2023-05-07T06:00:08;22.76;86.56
77523;SHT31;66637;-29.628;-49.938;2023-05-07T06:02:45;22.79;86.63
77523;SHT31;66637;-29.628;-49.938;2023-05-07T06:05:25;22.80;86.79
77523;SHT31;66637;-29.628;-49.938;2023-05-07T06:07:57;22.77;86.76
77523;SHT31;66637;-29.628;-49.938;2023-05-07T06:10:32;22.76;86.75
77523;SHT31;66637;-29.628;-49.938;2023-05-07T06:13:06;22.77;86.62
77523;SHT31;66637;-29.628;-49.938;2023-05-07T06:15:37;22.76;86.73
77523;SHT31;66637;-29.628;-49.938;2023-05-07T06:18:12;22.74;86.71
77523;SHT31;66637;-29.628;-49.938;2023-05-07T06:20:43;22.80;86.65
77523;SHT31;66637;-29.628;-49.938;2023-05-07T06:23:23;22.79;86.61
77523;SHT31;66637;-29.628;-49.938;2023-05-07T06:26:04;22.83;86.59
77523;SHT31;66637;-29.628;-49.938;2023-05-07T06:28:40;22.83;86.57
77523;SHT31;66637;-29.628;-49.938;2023-05-07T06:31:23;22.82;86.44
77523;SHT31;66637;-29.628;-49.938;2023-05-07T06:34:05;22.79;86.41
77523;SHT31;66637;-29.628;-49.938;2023-05-07T06:36:40;22.72;86.13
77523;SHT31;66637;-29.628;-49.938;2023-05-07T06:39:25;22.67;86.06
77523;SHT31;66637;-29.628;-49.938;2023-05-07T06:42:03;22.64;86.04
77523;SHT31;66637;-29.628;-49.938;2023-05-07T06:44:41;22.63;86.00
77523;SHT31;66637;-29.628;-49.938;2023-05-07T06:47:14;22.60;86.05
77523;SHT31;66637;-29.628;-49.938;2023-05-07T06:49:50;22.60;86.20
77523;SHT31;66637;-29.628;-49.938;2023-05-07T06:52:24;22.56;86.23
77523;SHT31;66637;-29.628;-49.938;2023-05-07T06:54:56;22.60;86.16
77523;SHT31;66637;-29.628;-49.938;2023-05-07T06:57:27;22.55;86.16
77523;SHT31;66637;-29.628;-49.938;2023-05-07T06:59:59;22.55;86.13
77523;SHT31;66637;-29.628;-49.938;2023-05-07T07:02:36;22.59;86.18
77523;SHT31;66637;-29.628;-49.938;2023-05-07T07:05:07;22.63;86.22
77523;SHT31;66637;-29.628;-49.938;2023-05-07T07:07:39;22.63;86.08
77523;SHT31;66637;-29.628;-49.938;2023-05-07T07:10:11;22.62;85.98
77523;SHT31;66637;-29.628;-49.938;2023-05-07T07:12:43;22.72;86.04
77523;SHT31;66637;-29.628;-49.938;2023-05-07T07:15:15;22.69;86.22
77523;SHT31;66637;-29.628;-49.938;2023-05-07T07:17:48;22.77;86.21
77523;SHT31;66637;-29.628;-49.938;2023-05-07T07:20:20;22.76;86.37
77523;SHT31;66637;-29.628;-49.938;2023-05-07T07:22:52;22.73;86.46
77523;SHT31;66637;-29.628;-49.938;2023-05-07T07:25:23;22.74;86.44
77523;SHT31;66637;-29.628;-49.938;2023-05-07T07:27:54;22.74;86.47
77523;SHT31;66637;-29.628;-49.938;2023-05-07T07:30:27;22.74;86.42
77523;SHT31;66637;-29.628;-49.938;2023-05-07T07:33:02;22.70;86.22
77523;SHT31;66637;-29.628;-49.938;2023-05-07T07:35:45;22.77;86.56
77523;SHT31;66637;-29.628;-49.938;2023-05-07T07:38:15;22.79;86.48
77523;SHT31;66637;-29.628;-49.938;2023-05-07T07:41:10;22.77;86.52
77523;SHT31;66637;-29.628;-49.938;2023-05-07T07:43:41;22.76;86.81
77523;SHT31;66637;-29.628;-49.938;2023-05-07T07:46:12;22.76;86.92
77523;SHT31;66637;-29.628;-49.938;2023-05-07T07:48:43;22.79;87.04
77523;SHT31;66637;-29.628;-49.938;2023-05-07T07:51:16;22.83;87.18
77523;SHT31;66637;-29.628;-49.938;2023-05-07T07:53:46;22.84;87.16
77523;SHT31;66637;-29.628;-49.938;2023-05-07T07:56:18;22.83;87.36
77523;SHT31;66637;-29.628;-49.938;2023-05-07T07:58:49;22.90;87.48
77523;SHT31;66637;-29.628;-49.938;2023-05-07T08:01:22;22.83;87.50
77523;SHT31;66637;-29.628;-49.938;2023-05-07T08:03:53;22.86;87.42
77523;SHT31;66637;-29.628;-49.938;2023-05-07T08:06:24;22.90;87.51
77523;SHT31;66637;-29.628;-49.938;2023-05-07T08:08:56;22.92;87.55
77523;SHT31;66637;-29.628;-49.938;2023-05-07T08:11:28;22.96;87.56
77523;SHT31;66637;-29.628;-49.938;2023-05-07T08:14:00;22.94;87.55
77523;SHT31;66637;-29.628;-49.938;2023-05-07T08:16:31;22.90;87.57
77523;SHT31;66637;-29.628;-49.938;2023-05-07T08:19:02;22.96;87.45
77523;SHT31;66637;-29.628;-49.938;2023-05-07T08:21:39;22.97;87.40
77523;SHT31;66637;-29.628;-49.938;2023-05-07T08:24:12;22.99;87.32
77523;SHT31;66637;-29.628;-49.938;2023-05-07T08:26:47;22.97;87.21
77523;SHT31;66637;-29.628;-49.938;2023-05-07T08:29:18;22.97;86.99
77523;SHT31;66637;-29.628;-49.938;2023-05-07T08:31:51;22.93;86.89
77523;SHT31;66637;-29.628;-49.938;2023-05-07T08:34:24;22.87;86.73
77523;SHT31;66637;-29.628;-49.938;2023-05-07T08:36:58;22.80;86.64
77523;SHT31;66637;-29.628;-49.938;2023-05-07T08:39:33;22.76;86.57
77523;SHT31;66637;-29.628;-49.938;2023-05-07T08:42:09;22.77;86.57
77523;SHT31;66637;-29.628;-49.938;2023-05-07T08:44:42;22.93;86.61
77523;SHT31;66637;-29.628;-49.938;2023-05-07T08:47:18;22.87;86.43
77523;SHT31;66637;-29.628;-49.938;2023-05-07T08:49:54;22.86;86.55
77523;SHT31;66637;-29.628;-49.938;2023-05-07T08:52:28;22.83;86.52
77523;SHT31;66637;-29.628;-49.938;2023-05-07T08:55:00;22.83;86.59
77523;SHT31;66637;-29.628;-49.938;2023-05-07T08:57:34;22.87;86.73
77523;SHT31;66637;-29.628;-49.938;2023-05-07T09:00:20;22.86;86.90
77523;SHT31;66637;-29.628;-49.938;2023-05-07T09:02:54;22.84;87.15
77523;SHT31;66637;-29.628;-49.938;2023-05-07T09:05:26;22.83;87.11
77523;SHT31;66637;-29.628;-49.938;2023-05-07T09:08:01;22.86;87.12
77523;SHT31;66637;-29.628;-49.938;2023-05-07T09:10:33;22.83;87.20
77523;SHT31;66637;-29.628;-49.938;2023-05-07T09:13:05;22.86;87.39
77523;SHT31;66637;-29.628;-49.938;2023-05-07T09:15:37;22.84;87.44
77523;SHT31;66637;-29.628;-49.938;2023-05-07T09:18:08;22.86;87.48
77523;SHT31;66637;-29.628;-49.938;2023-05-07T09:20:41;22.89;87.57
77523;SHT31;66637;-29.628;-49.938;2023-05-07T09:23:14;22.93;87.48
77523;SHT31;66637;-29.628;-49.938;2023-05-07T09:25:46;22.93;87.66
77523;SHT31;66637;-29.628;-49.938;2023-05-07T09:28:26;22.93;87.69
77523;SHT31;66637;-29.628;-49.938;2023-05-07T09:30:57;22.94;87.67
77523;SHT31;66637;-29.628;-49.938;2023-05-07T09:33:28;23.00;87.69
77523;SHT31;66637;-29.628;-49.938;2023-05-07T09:36:08;22.97;87.87
77523;SHT31;66637;-29.628;-49.938;2023-05-07T09:38:41;22.96;87.83
77523;SHT31;66637;-29.628;-49.938;2023-05-07T09:41:14;22.96;87.93
77523;SHT31;66637;-29.628;-49.938;2023-05-07T09:44:00;22.99;87.91
77523;SHT31;66637;-29.628;-49.938;2023-05-07T09:46:38;22.99;87.87
77523;SHT31;66637;-29.628;-49.938;2023-05-07T09:49:22;22.97;87.96
77523;SHT31;66637;-29.628;-49.938;2023-05-07T09:52:03;22.96;87.98
77523;SHT31;66637;-29.628;-49.938;2023-05-07T09:54:43;22.94;87.97
77523;SHT31;66637;-29.628;-49.938;2023-05-07T09:57:22;22.94;88.02
77523;SHT31;66637;-29.628;-49.938;2023-05-07T10:00:00;22.93;88.08
77523;SHT31;66637;-29.628;-49.938;2023-05-07T10:02:46;23.00;87.98
77523;SHT31;66637;-29.628;-49.938;2023-05-07T10:05:24;22.96;88.05
77523;SHT31;66637;-29.628;-49.938;2023-05-07T10:08:01;22.94;88.21
77523;SHT31;66637;-29.628;-49.938;2023-05-07T10:10:38;22.93;88.22
77523;SHT31;66637;-29.628;-49.938;2023-05-07T10:13:17;22.92;88.24
77523;SHT31;66637;-29.628;-49.938;2023-05-07T10:15:53;22.94;88.23
77523;SHT31;66637;-29.628;-49.938;2023-05-07T10:18:41;22.97;88.15
77523;SHT31;66637;-29.628;-49.938;2023-05-07T10:21:21;23.00;88.11
77523;SHT31;66637;-29.628;-49.938;2023-05-07T10:24:03;23.07;88.05
77523;SHT31;66637;-29.628;-49.938;2023-05-07T10:26:50;23.08;87.99
77523;SHT31;66637;-29.628;-49.938;2023-05-07T10:35:40;23.15;87.86
77523;SHT31;66637;-29.628;-49.938;2023-05-07T10:38:17;23.15;87.82
77523;SHT31;66637;-29.628;-49.938;2023-05-07T10:40:48;23.11;87.77
77523;SHT31;66637;-29.628;-49.938;2023-05-07T10:43:22;23.11;87.84
77523;SHT31;66637;-29.628;-49.938;2023-05-07T10:46:18;23.11;88.02
77523;SHT31;66637;-29.628;-49.938;2023-05-07T10:49:10;23.14;87.87
77523;SHT31;66637;-29.628;-49.938;2023-05-07T10:52:20;23.14;87.88
77523;SHT31;66637;-29.628;-49.938;2023-05-07T10:55:19;23.08;87.69
77523;SHT31;66637;-29.628;-49.938;2023-05-07T10:58:27;23.08;87.87
77523;SHT31;66637;-29.628;-49.938;2023-05-07T11:05:19;23.17;87.73
77523;SHT31;66637;-29.628;-49.938;2023-05-07T11:08:17;23.08;87.57
77523;SHT31;66637;-29.628;-49.938;2023-05-07T11:10:57;23.06;87.56
77523;SHT31;66637;-29.628;-49.938;2023-05-07T11:13:48;23.10;87.59
77523;SHT31;66637;-29.628;-49.938;2023-05-07T11:16:37;23.04;87.43
77523;SHT31;66637;-29.628;-49.938;2023-05-07T11:19:55;23.10;87.57
77523;SHT31;66637;-29.628;-49.938;2023-05-07T11:22:39;23.03;87.44
77523;SHT31;66637;-29.628;-49.938;2023-05-07T11:25:57;23.08;87.45
77523;SHT31;66637;-29.628;-49.938;2023-05-07T11:28:30;23.07;87.29
77523;SHT31;66637;-29.628;-49.938;2023-05-07T11:31:03;23.13;87.09
77523;SHT31;66637;-29.628;-49.938;2023-05-07T11:33:40;23.13;86.99
77523;SHT31;66637;-29.628;-49.938;2023-05-07T11:36:15;23.11;86.90
77523;SHT31;66637;-29.628;-49.938;2023-05-07T11:38:48;23.06;86.99
77523;SHT31;66637;-29.628;-49.938;2023-05-07T11:41:20;23.18;86.97
77523;SHT31;66637;-29.628;-49.938;2023-05-07T11:43:58;23.27;86.87
77523;SHT31;66637;-29.628;-49.938;2023-05-07T11:46:30;23.35;86.61
77523;SHT31;66637;-29.628;-49.938;2023-05-07T11:49:02;23.53;86.11
77523;SHT31;66637;-29.628;-49.938;2023-05-07T11:51:34;23.41;85.97
77523;SHT31;66637;-29.628;-49.938;2023-05-07T11:54:09;23.31;86.11
77523;SHT31;66637;-29.628;-49.938;2023-05-07T11:56:44;23.43;86.38
77523;SHT31;66637;-29.628;-49.938;2023-05-07T11:59:19;23.33;86.20
77523;SHT31;66637;-29.628;-49.938;2023-05-07T12:01:50;23.28;86.35
77523;SHT31;66637;-29.628;-49.938;2023-05-07T12:04:21;23.35;86.36
77523;SHT31;66637;-29.628;-49.938;2023-05-07T12:06:55;23.44;86.10
77523;SHT31;66637;-29.628;-49.938;2023-05-07T12:09:28;23.38;85.86
77523;SHT31;66637;-29.628;-49.938;2023-05-07T12:12:03;23.40;85.61
77523;SHT31;66637;-29.628;-49.938;2023-05-07T12:14:39;23.43;85.71
77523;SHT31;66637;-29.628;-49.938;2023-05-07T12:17:13;23.51;85.35
77523;SHT31;66637;-29.628;-49.938;2023-05-07T12:19:45;23.59;85.41
77523;SHT31;66637;-29.628;-49.938;2023-05-07T12:22:18;23.55;85.22
77523;SHT31;66637;-29.628;-49.938;2023-05-07T12:24:57;23.59;85.46
77523;SHT31;66637;-29.628;-49.938;2023-05-07T12:27:28;23.53;85.53
77523;SHT31;66637;-29.628;-49.938;2023-05-07T12:30:00;23.61;85.20
77523;SHT31;66637;-29.628;-49.938;2023-05-07T12:32:32;23.72;84.87
77523;SHT31;66637;-29.628;-49.938;2023-05-07T12:35:06;23.72;84.73
77523;SHT31;66637;-29.628;-49.938;2023-05-07T12:37:55;23.75;84.64
77523;SHT31;66637;-29.628;-49.938;2023-05-07T12:40:50;23.95;84.84
77523;SHT31;66637;-29.628;-49.938;2023-05-07T12:43:27;24.09;83.64
77523;SHT31;66637;-29.628;-49.938;2023-05-07T12:46:01;24.25;83.03
77523;SHT31;66637;-29.628;-49.938;2023-05-07T12:48:35;24.69;81.75
77523;SHT31;66637;-29.628;-49.938;2023-05-07T12:51:07;24.79;81.46
77523;SHT31;66637;-29.628;-49.938;2023-05-07T12:53:41;24.88;81.15
77523;SHT31;66637;-29.628;-49.938;2023-05-07T12:56:16;24.84;80.98
77523;SHT31;66637;-29.628;-49.938;2023-05-07T12:58:48;25.10;80.08
77523;SHT31;66637;-29.628;-49.938;2023-05-07T13:01:21;25.43;79.26
77523;SHT31;66637;-29.628;-49.938;2023-05-07T13:03:54;25.57;78.80
77523;SHT31;66637;-29.628;-49.938;2023-05-07T13:06:25;25.68;79.04
77523;SHT31;66637;-29.628;-49.938;2023-05-07T13:08:56;25.79;78.25
77523;SHT31;66637;-29.628;-49.938;2023-05-07T13:11:27;25.88;77.74
77523;SHT31;66637;-29.628;-49.938;2023-05-07T13:13:57;25.76;77.73
77523;SHT31;66637;-29.628;-49.938;2023-05-07T13:16:29;25.72;78.28
77523;SHT31;66637;-29.628;-49.938;2023-05-07T13:19:00;26.07;77.84
77523;SHT31;66637;-29.628;-49.938;2023-05-07T13:21:33;26.10;76.98
77523;SHT31;66637;-29.628;-49.938;2023-05-07T13:24:04;26.24;76.40
77523;SHT31;66637;-29.628;-49.938;2023-05-07T13:26:35;26.46;75.72
77523;SHT31;66637;-29.628;-49.938;2023-05-07T13:29:07;26.63;75.22
77523;SHT31;66637;-29.628;-49.938;2023-05-07T13:31:45;26.71;75.30
77523;SHT31;66637;-29.628;-49.938;2023-05-07T13:34:18;26.60;75.74
77523;SHT31;66637;-29.628;-49.938;2023-05-07T13:36:51;26.73;74.50
77523;SHT31;66637;-29.628;-49.938;2023-05-07T13:39:22;26.68;74.38
77523;SHT31;66637;-29.628;-49.938;2023-05-07T13:41:54;26.77;74.84
77523;SHT31;66637;-29.628;-49.938;2023-05-07T13:44:26;26.53;75.12
77523;SHT31;66637;-29.628;-49.938;2023-05-07T13:46:57;26.57;74.58
77523;SHT31;66637;-29.628;-49.938;2023-05-07T13:49:34;26.50;74.37
77523;SHT31;66637;-29.628;-49.938;2023-05-07T13:52:06;26.65;74.50
77523;SHT31;66637;-29.628;-49.938;2023-05-07T13:54:38;26.70;74.63
77523;SHT31;66637;-29.628;-49.938;2023-05-07T13:57:09;26.67;75.59
77523;SHT31;66637;-29.628;-49.938;2023-05-07T13:59:44;26.34;75.72
77523;SHT31;66637;-29.628;-49.938;2023-05-07T14:02:16;26.13;76.35
77523;SHT31;66637;-29.628;-49.938;2023-05-07T14:04:59;26.14;76.37
77523;SHT31;66637;-29.628;-49.938;2023-05-07T14:07:31;25.89;76.99
77523;SHT31;66637;-29.628;-49.938;2023-05-07T14:10:04;25.89;77.42
77523;SHT31;66637;-29.628;-49.938;2023-05-07T14:12:37;25.72;77.52
77523;SHT31;66637;-29.628;-49.938;2023-05-07T14:15:08;25.65;78.30
77523;SHT31;66637;-29.628;-49.938;2023-05-07T14:17:40;25.37;78.02
77523;SHT31;66637;-29.628;-49.938;2023-05-07T14:20:12;25.27;79.06
77523;SHT31;66637;-29.628;-49.938;2023-05-07T14:22:45;25.52;78.67
77523;SHT31;66637;-29.628;-49.938;2023-05-07T14:25:20;25.99;78.17
77523;SHT31;66637;-29.628;-49.938;2023-05-07T14:27:53;26.06;77.21
77523;SHT31;66637;-29.628;-49.938;2023-05-07T14:30:24;26.34;76.12
77523;SHT31;66637;-29.628;-49.938;2023-05-07T14:32:56;26.23;76.67
77523;SHT31;66637;-29.628;-49.938;2023-05-07T14:35:27;26.37;75.67
77523;SHT31;66637;-29.628;-49.938;2023-05-07T14:37:59;26.13;76.50
77523;SHT31;66637;-29.628;-49.938;2023-05-07T14:40:36;26.20;76.29
77523;SHT31;66637;-29.628;-49.938;2023-05-07T14:43:18;26.32;76.71
77523;SHT31;66637;-29.628;-49.938;2023-05-07T14:45:51;26.33;76.73
77523;SHT31;66637;-29.628;-49.938;2023-05-07T14:48:23;26.43;76.18
77523;SHT31;66637;-29.628;-49.938;2023-05-07T14:50:56;26.40;76.40
77523;SHT31;66637;-29.628;-49.938;2023-05-07T14:53:38;26.41;76.43
77523;SHT31;66637;-29.628;-49.938;2023-05-07T14:56:14;26.23;77.48
77523;SHT31;66637;-29.628;-49.938;2023-05-07T14:58:48;26.13;76.63
77523;SHT31;66637;-29.628;-49.938;2023-05-07T15:01:22;26.24;77.20
77523;SHT31;66637;-29.628;-49.938;2023-05-07T15:03:55;26.22;76.86
77523;SHT31;66637;-29.628;-49.938;2023-05-07T15:06:26;26.14;76.85
77523;SHT31;66637;-29.628;-49.938;2023-05-07T15:09:01;25.97;76.99
77523;SHT31;66637;-29.628;-49.938;2023-05-07T15:11:33;26.10;77.54
77523;SHT31;66637;-29.628;-49.938;2023-05-07T15:14:04;26.22;77.01
77523;SHT31;66637;-29.628;-49.938;2023-05-07T15:16:42;26.32;76.71
77523;SHT31;66637;-29.628;-49.938;2023-05-07T15:19:16;26.32;76.11
77523;SHT31;66637;-29.628;-49.938;2023-05-07T15:21:46;26.05;76.98
77523;SHT31;66637;-29.628;-49.938;2023-05-07T15:24:18;25.95;76.87
77523;SHT31;66637;-29.628;-49.938;2023-05-07T15:26:52;25.92;77.44
77523;SHT31;66637;-29.628;-49.938;2023-05-07T15:29:24;25.96;77.90
77523;SHT31;66637;-29.628;-49.938;2023-05-07T15:31:58;25.95;78.07
77523;SHT31;66637;-29.628;-49.938;2023-05-07T15:34:30;25.93;77.35
77523;SHT31;66637;-29.628;-49.938;2023-05-07T15:37:05;26.19;77.25
77523;SHT31;66637;-29.628;-49.938;2023-05-07T15:39:36;26.03;77.72
77523;SHT31;66637;-29.628;-49.938;2023-05-07T15:42:07;26.07;77.85